createdAt,value
2019-03-08T00:00:34.239Z,1.23
2019-03-08T00:03:11.982Z,1.47
2019-03-08T00:05:41.077Z,1.27
2019-03-08T00:08:09.961Z,1.17
2019-03-08T00:10:46.436Z,1.13
2019-03-08T00:13:15.534Z,1.20
2019-03-08T00:15:44.526Z,1.50
2019-03-08T00:18:20.388Z,1.40
2019-03-08T00:20:56.448Z,1.07
2019-03-08T00:23:39.257Z,1.47
2019-03-08T00:26:08.153Z,1.20
2019-03-08T00:28:37.251Z,1.40
2019-03-08T00:31:12.998Z,1.40
2019-03-08T00:33:42.094Z,1.53
2019-03-08T00:36:18.196Z,1.80
2019-03-08T00:38:47.098Z,1.67
2019-03-08T00:41:16.452Z,1.70
2019-03-08T00:43:52.303Z,1.50
2019-03-08T00:46:28.162Z,1.70
2019-03-08T00:49:04.015Z,1.43
2019-03-08T00:51:32.926Z,1.90
2019-03-08T00:54:02.008Z,1.83
2019-03-08T00:56:39.681Z,1.40
2019-03-08T00:59:08.799Z,1.73
2019-03-08T01:01:44.453Z,1.60
2019-03-08T01:04:13.437Z,1.50
2019-03-08T01:06:42.329Z,1.63
2019-03-08T01:09:18.704Z,2.03
2019-03-08T01:11:47.696Z,1.60
2019-03-08T01:14:22.940Z,1.63
2019-03-08T01:16:52.026Z,1.97
2019-03-08T01:19:21.330Z,1.43
2019-03-08T01:21:57.087Z,1.60
2019-03-08T01:24:32.935Z,1.63
2019-03-08T01:27:08.996Z,1.20
2019-03-08T01:29:37.990Z,1.30
2019-03-08T01:32:07.308Z,1.23
2019-03-08T01:34:43.043Z,1.23
2019-03-08T01:37:12.137Z,0.97
2019-03-08T01:39:48.093Z,1.47
2019-03-08T01:42:17.088Z,1.07
2019-03-08T01:44:46.491Z,0.80
2019-03-08T01:47:23.003Z,0.87
2019-03-08T01:49:58.725Z,2.80
2019-03-08T01:52:35.390Z,1.00
2019-03-08T01:55:06.126Z,1.27
2019-03-08T01:57:35.124Z,0.80
2019-03-08T02:00:13.325Z,0.90
2019-03-08T02:02:42.237Z,0.80
2019-03-08T02:05:17.571Z,0.73
2019-03-08T02:07:46.412Z,0.80
2019-03-08T02:10:16.607Z,0.80
2019-03-08T02:12:52.326Z,1.10
2019-03-08T02:15:21.321Z,1.00
2019-03-08T02:17:50.617Z,1.00
2019-03-08T02:20:29.342Z,0.97
2019-03-08T02:23:05.604Z,1.07
2019-03-08T02:25:48.018Z,0.80
2019-03-08T02:28:17.110Z,0.90
2019-03-08T02:30:46.207Z,0.70
2019-03-08T02:33:21.859Z,1.00
2019-03-08T02:35:50.892Z,1.03
2019-03-08T02:38:26.909Z,1.00
2019-03-08T02:40:55.912Z,1.07
2019-03-08T02:43:25.202Z,0.90
2019-03-08T02:46:00.450Z,0.90
2019-03-08T02:48:36.401Z,1.00
2019-03-08T02:51:12.360Z,0.93
2019-03-08T02:53:41.349Z,0.90
2019-03-08T02:56:10.343Z,1.00
2019-03-08T02:58:46.714Z,1.07
2019-03-08T03:01:16.141Z,1.00
2019-03-08T03:03:51.561Z,1.13
2019-03-08T03:06:20.662Z,0.80
2019-03-08T03:08:49.652Z,0.80
2019-03-08T03:11:25.915Z,1.10
2019-03-08T03:13:54.911Z,0.97
2019-03-08T03:16:30.784Z,0.83
2019-03-08T03:18:59.757Z,0.83
2019-03-08T03:21:28.753Z,1.00
2019-03-08T03:24:04.199Z,1.00
2019-03-08T03:26:40.159Z,0.70
2019-03-08T03:29:16.625Z,0.83
2019-03-08T03:31:45.627Z,1.10
2019-03-08T03:34:14.509Z,0.90
2019-03-08T03:36:50.778Z,0.90
2019-03-08T03:39:19.772Z,0.87
2019-03-08T03:41:55.626Z,1.00
2019-03-08T03:44:24.514Z,0.90
2019-03-08T03:46:54.019Z,1.00
2019-03-08T03:49:36.428Z,0.90
2019-03-08T03:52:05.421Z,0.80
2019-03-08T03:54:41.688Z,0.83
2019-03-08T03:57:10.794Z,0.80
2019-03-08T03:59:39.671Z,0.70
2019-03-08T04:02:15.326Z,0.90
2019-03-08T04:04:44.419Z,0.93
2019-03-08T04:07:20.378Z,0.90
2019-03-08T04:09:49.880Z,0.70
2019-03-08T04:12:18.773Z,0.93
2019-03-08T04:14:54.836Z,1.03
2019-03-08T04:17:23.738Z,0.90
2019-03-08T04:19:58.767Z,0.77
2019-03-08T04:22:27.771Z,0.87
2019-03-08T04:25:03.831Z,0.67
2019-03-08T04:27:41.681Z,0.97
2019-03-08T04:30:25.354Z,0.77
2019-03-08T04:32:54.249Z,0.70
2019-03-08T04:35:23.247Z,0.70
2019-03-08T04:37:59.300Z,0.77
2019-03-08T04:40:28.291Z,0.63
2019-03-08T04:42:57.495Z,0.50
2019-03-08T04:45:33.143Z,0.90
2019-03-08T04:48:01.970Z,0.80
2019-03-08T04:50:44.542Z,0.80
2019-03-08T04:53:13.850Z,1.13
2019-03-08T04:55:42.938Z,0.80
2019-03-08T04:58:18.794Z,0.93
2019-03-08T05:00:47.690Z,0.90
2019-03-08T05:03:23.134Z,0.80
2019-03-08T05:05:52.535Z,0.67
2019-03-08T05:08:21.439Z,1.03
2019-03-08T05:10:57.590Z,0.90
2019-03-08T05:13:26.481Z,0.93
2019-03-08T05:16:02.302Z,1.03
2019-03-08T05:18:33.001Z,0.80
2019-03-08T05:21:01.940Z,0.80
2019-03-08T05:23:37.924Z,0.90
2019-03-08T05:26:13.668Z,0.80
2019-03-08T05:28:57.310Z,0.73
2019-03-08T05:31:26.197Z,0.67
2019-03-08T05:33:55.097Z,0.70
2019-03-08T05:36:31.358Z,0.73
2019-03-08T05:39:00.757Z,0.77
2019-03-08T05:41:36.829Z,0.90
2019-03-08T05:44:05.912Z,0.80
2019-03-08T05:46:35.294Z,0.90
2019-03-08T05:49:11.682Z,1.00
2019-03-08T05:51:40.575Z,0.90
2019-03-08T05:54:16.021Z,0.90
2019-03-08T05:56:44.960Z,0.87
2019-03-08T05:59:14.010Z,1.00
2019-03-08T06:01:50.315Z,0.90
2019-03-08T06:04:19.553Z,0.90
2019-03-08T06:06:55.100Z,0.77
2019-03-08T06:09:24.133Z,0.67
2019-03-08T06:11:53.425Z,0.90
2019-03-08T06:14:28.681Z,0.70
2019-03-08T06:16:57.594Z,0.87
2019-03-08T06:19:34.981Z,1.00
2019-03-08T06:22:04.034Z,1.10
2019-03-08T06:24:33.546Z,1.20
2019-03-08T06:27:14.428Z,1.00
2019-03-08T06:29:57.132Z,0.90
2019-03-08T06:32:35.178Z,0.90
2019-03-08T06:35:04.771Z,1.00
2019-03-08T06:37:33.609Z,1.23
2019-03-08T06:40:09.184Z,1.50
2019-03-08T06:42:38.079Z,1.30
2019-03-08T06:45:21.737Z,1.60
2019-03-08T06:47:50.412Z,1.60
2019-03-08T06:50:22.368Z,1.40
2019-03-08T06:52:58.828Z,1.60
2019-03-08T06:55:37.651Z,1.77
2019-03-08T06:58:06.865Z,1.93
2019-03-08T07:00:46.497Z,2.20
2019-03-08T07:03:17.824Z,2.23
2019-03-08T07:05:53.309Z,2.63
2019-03-08T07:08:24.021Z,2.60
2019-03-08T07:10:53.123Z,2.60
2019-03-08T07:13:33.172Z,2.40
2019-03-08T07:16:02.371Z,2.47
2019-03-08T07:18:38.179Z,2.73
2019-03-08T07:21:27.700Z,3.30
2019-03-08T07:24:05.703Z,2.67
2019-03-08T07:27:06.202Z,3.20
2019-03-08T07:29:49.106Z,3.10
2019-03-08T07:32:19.688Z,3.43
2019-03-08T07:34:50.152Z,3.63
2019-03-08T07:37:43.296Z,3.60
2019-03-08T07:40:15.737Z,3.43
2019-03-08T07:42:58.988Z,3.47
2019-03-08T07:45:29.514Z,3.83
2019-03-08T07:48:23.386Z,3.80
2019-03-08T07:51:03.338Z,3.70
2019-03-08T07:53:42.917Z,3.67
2019-03-08T07:56:16.377Z,2.93
2019-03-08T07:59:03.295Z,3.23
2019-03-08T08:01:36.541Z,3.53
2019-03-08T08:04:30.594Z,3.37
2019-03-08T08:07:10.312Z,3.17
2019-03-08T08:09:53.856Z,3.23
2019-03-08T08:12:33.314Z,3.57
2019-03-08T08:15:10.754Z,3.63
2019-03-08T08:17:49.849Z,3.50
2019-03-08T08:20:36.211Z,3.80
2019-03-08T08:23:15.454Z,3.83
2019-03-08T08:26:09.015Z,3.80
2019-03-08T08:29:11.078Z,3.67
2019-03-08T08:31:51.554Z,3.90
2019-03-08T08:34:38.567Z,4.67
2019-03-08T08:37:15.753Z,3.63
2019-03-08T08:39:51.851Z,4.13
2019-03-08T08:42:45.430Z,4.17
2019-03-08T08:45:32.402Z,4.03
2019-03-08T08:48:21.683Z,4.63
2019-03-08T08:51:01.328Z,4.80
2019-03-08T08:53:39.123Z,5.17
2019-03-08T08:56:21.339Z,4.27
2019-03-08T08:59:02.269Z,5.27
2019-03-08T09:01:36.098Z,4.23
2019-03-08T09:04:23.177Z,5.47
2019-03-08T09:06:59.170Z,4.87
2019-03-08T09:09:52.111Z,4.87
2019-03-08T09:12:34.998Z,5.07
2019-03-08T09:15:13.541Z,5.30
2019-03-08T09:17:49.903Z,4.40
2019-03-08T09:20:27.276Z,4.77
2019-03-08T09:23:00.725Z,4.70
2019-03-08T09:25:31.964Z,5.17
2019-03-08T09:28:08.893Z,4.07
2019-03-08T09:31:03.015Z,3.53
2019-03-08T09:33:50.575Z,3.80
2019-03-08T09:36:36.876Z,3.47
2019-03-08T09:39:18.034Z,3.47
2019-03-08T09:42:03.591Z,3.60
2019-03-08T09:44:34.230Z,3.90
2019-03-08T09:47:20.148Z,4.20
2019-03-08T09:50:08.637Z,4.57
2019-03-08T09:52:46.101Z,3.73
2019-03-08T09:55:23.120Z,3.90
2019-03-08T09:58:15.099Z,4.80
2019-03-08T10:00:45.759Z,4.60
2019-03-08T10:03:26.848Z,4.40
2019-03-08T10:06:06.556Z,3.80
2019-03-08T10:08:56.419Z,4.40
2019-03-08T10:11:29.793Z,4.70
2019-03-08T10:14:25.255Z,4.10
2019-03-08T10:16:58.169Z,4.40
2019-03-08T10:19:38.035Z,4.63
2019-03-08T10:22:08.818Z,4.47
2019-03-08T10:24:49.037Z,4.40
2019-03-08T10:27:19.740Z,4.53
2019-03-08T10:30:09.698Z,2.57
2019-03-08T10:32:43.314Z,3.00
2019-03-08T10:35:30.115Z,3.20
2019-03-08T10:38:03.301Z,3.37
2019-03-08T10:40:56.675Z,2.70
2019-03-08T10:43:27.171Z,2.87
2019-03-08T10:45:57.774Z,2.37
2019-03-08T10:48:35.225Z,2.77
2019-03-08T10:51:08.694Z,2.93
2019-03-08T10:54:03.505Z,2.90
2019-03-08T10:56:43.342Z,3.43
2019-03-08T10:59:20.528Z,3.40
2019-03-08T11:01:51.038Z,3.33
2019-03-08T11:04:40.045Z,3.03
2019-03-08T11:07:10.786Z,4.07
2019-03-08T11:09:57.349Z,3.53
2019-03-08T11:12:27.815Z,3.10
2019-03-08T11:15:05.412Z,3.33
2019-03-08T11:17:36.364Z,3.30
2019-03-08T11:20:19.821Z,2.70
2019-03-08T11:22:50.316Z,3.07
2019-03-08T11:25:35.002Z,2.53
2019-03-08T11:28:08.136Z,3.10
2019-03-08T11:30:54.677Z,3.73
2019-03-08T11:33:47.124Z,3.30
2019-03-08T11:36:24.648Z,2.97
2019-03-08T11:38:55.121Z,3.07
2019-03-08T11:41:32.549Z,3.23
2019-03-08T11:44:03.033Z,4.10
2019-03-08T11:46:40.572Z,3.53
2019-03-08T11:49:34.283Z,3.43
2019-03-08T11:52:04.775Z,3.07
2019-03-08T11:54:44.794Z,3.67
2019-03-08T11:57:15.276Z,2.57
2019-03-08T12:00:09.371Z,3.53
2019-03-08T12:02:49.062Z,2.50
2019-03-08T12:05:26.742Z,2.63
2019-03-08T12:08:03.066Z,2.53
2019-03-08T12:10:42.854Z,2.80
2019-03-08T12:13:13.401Z,3.10
2019-03-08T12:15:44.193Z,2.50
2019-03-08T12:18:30.601Z,2.40
2019-03-08T12:21:03.771Z,1.77
2019-03-08T12:23:41.029Z,2.20
2019-03-08T12:26:17.795Z,1.50
2019-03-08T12:28:55.286Z,2.20
2019-03-08T12:31:35.443Z,1.93
2019-03-08T12:34:37.714Z,1.80
2019-03-08T12:37:16.814Z,2.23
2019-03-08T12:39:53.759Z,2.23
2019-03-08T12:42:40.435Z,2.40
2019-03-08T12:45:25.180Z,3.00
2019-03-08T12:47:58.402Z,2.40
2019-03-08T12:50:38.960Z,2.90
2019-03-08T12:53:12.530Z,2.93
2019-03-08T12:55:53.124Z,3.10
2019-03-08T12:58:32.910Z,3.40
2019-03-08T13:01:10.466Z,2.93
2019-03-08T13:03:41.376Z,3.30
2019-03-08T13:06:12.054Z,2.63
2019-03-08T13:08:55.678Z,3.33
2019-03-08T13:11:32.948Z,2.60
2019-03-08T13:14:02.328Z,2.70
2019-03-08T13:16:31.298Z,3.03
2019-03-08T13:19:06.806Z,2.00
2019-03-08T13:21:36.319Z,2.73
2019-03-08T13:24:05.195Z,3.23
2019-03-08T13:26:40.865Z,3.10
2019-03-08T13:29:09.739Z,2.63
2019-03-08T13:31:45.430Z,3.23
2019-03-08T13:34:21.679Z,3.03
2019-03-08T13:37:04.290Z,3.20
2019-03-08T13:39:33.190Z,2.57
2019-03-08T13:42:02.671Z,3.27
2019-03-08T13:44:38.228Z,2.80
2019-03-08T13:47:07.640Z,3.23
2019-03-08T13:49:43.474Z,3.17
2019-03-08T13:52:12.312Z,3.53
2019-03-08T13:54:41.357Z,3.60
2019-03-08T13:57:17.251Z,3.50
2019-03-08T13:59:46.207Z,3.37
2019-03-08T14:02:21.656Z,3.23
2019-03-08T14:04:50.646Z,3.07
2019-03-08T14:07:19.742Z,4.00
2019-03-08T14:09:55.675Z,3.87
2019-03-08T14:12:24.508Z,3.17
2019-03-08T14:15:00.765Z,3.60
2019-03-08T14:17:29.630Z,3.30
2019-03-08T14:19:58.662Z,3.40
2019-03-08T14:22:34.847Z,3.60
2019-03-08T14:25:04.001Z,3.40
2019-03-08T14:27:40.674Z,3.43
2019-03-08T14:30:19.208Z,2.87
2019-03-08T14:33:01.653Z,3.87
2019-03-08T14:35:31.016Z,3.70
2019-03-08T14:38:13.291Z,3.30
2019-03-08T14:40:46.807Z,3.73
2019-03-08T14:43:24.515Z,3.63
2019-03-08T14:46:10.993Z,3.50
2019-03-08T14:48:47.423Z,3.03
2019-03-08T14:51:16.273Z,3.77
2019-03-08T14:53:45.168Z,3.83
2019-03-08T14:56:20.934Z,3.53
2019-03-08T14:58:49.911Z,3.43
2019-03-08T15:01:25.969Z,3.10
2019-03-08T15:03:56.576Z,3.30
2019-03-08T15:06:28.026Z,2.87
2019-03-08T15:09:02.679Z,3.37
2019-03-08T15:11:31.677Z,3.43
2019-03-08T15:14:06.902Z,3.23
2019-03-08T15:16:39.229Z,3.10
2019-03-08T15:19:06.231Z,3.37
2019-03-08T15:21:48.211Z,3.53
2019-03-08T15:24:12.198Z,3.20
2019-03-08T15:26:47.948Z,3.33
2019-03-08T15:29:16.870Z,3.80
2019-03-08T15:31:45.921Z,2.93
2019-03-08T15:34:21.571Z,3.27
2019-03-08T15:36:57.254Z,2.87
2019-03-08T15:39:39.347Z,2.77
2019-03-08T15:42:08.851Z,3.30
2019-03-08T15:44:38.053Z,3.33
2019-03-08T15:47:23.041Z,3.30
2019-03-08T15:49:43.837Z,3.30
2019-03-08T15:52:19.488Z,2.97
2019-03-08T15:54:48.362Z,3.23
2019-03-08T15:57:17.457Z,3.63
2019-03-08T15:59:53.528Z,3.20
2019-03-08T16:02:22.409Z,2.50
2019-03-08T16:04:58.479Z,2.73
2019-03-08T16:07:27.362Z,2.67
2019-03-08T16:09:56.210Z,2.87
2019-03-08T16:12:32.619Z,2.90
2019-03-08T16:15:01.865Z,2.93
2019-03-08T16:17:37.383Z,3.33
2019-03-08T16:20:12.305Z,4.13
2019-03-08T16:22:48.170Z,3.53
2019-03-08T16:25:17.771Z,3.43
2019-03-08T16:27:47.104Z,2.77
2019-03-08T16:30:32.559Z,3.20
2019-03-08T16:33:31.347Z,3.80
2019-03-08T16:36:26.936Z,3.83
2019-03-08T16:39:13.317Z,3.27
2019-03-08T16:41:59.893Z,3.60
2019-03-08T16:44:54.696Z,3.40
2019-03-08T16:47:27.981Z,4.70
2019-03-08T16:50:04.538Z,4.03
2019-03-08T16:52:51.445Z,4.37
2019-03-08T16:55:38.714Z,4.27
2019-03-08T16:58:25.686Z,3.47
2019-03-08T17:01:02.761Z,3.60
2019-03-08T17:03:45.005Z,2.90
2019-03-08T17:06:26.749Z,3.20
2019-03-08T17:08:59.786Z,2.67
2019-03-08T17:11:36.920Z,2.60
2019-03-08T17:14:13.751Z,3.43
2019-03-08T17:16:50.787Z,2.40
2019-03-08T17:19:30.175Z,2.90
2019-03-08T17:22:10.407Z,2.70
2019-03-08T17:24:47.059Z,2.70
2019-03-08T17:27:39.970Z,2.50
2019-03-08T17:30:13.495Z,3.93
2019-03-08T17:33:06.854Z,3.70
2019-03-08T17:35:51.074Z,2.63
2019-03-08T17:38:43.250Z,2.70
2019-03-08T17:41:37.066Z,2.57
2019-03-08T17:44:10.588Z,2.63
2019-03-08T17:46:54.279Z,2.63
2019-03-08T17:49:30.539Z,2.80
2019-03-08T17:52:10.782Z,2.27
2019-03-08T17:54:50.467Z,3.03
2019-03-08T17:57:28.149Z,2.53
2019-03-08T18:00:14.399Z,3.30
2019-03-08T18:03:07.910Z,3.47
2019-03-08T18:05:54.835Z,2.83
2019-03-08T18:08:37.803Z,2.67
2019-03-08T18:11:20.407Z,3.57
2019-03-08T18:13:58.158Z,3.17
2019-03-08T18:16:40.513Z,3.73
2019-03-08T18:19:21.029Z,3.03
2019-03-08T18:22:07.228Z,4.53
2019-03-08T18:24:47.412Z,3.50
2019-03-08T18:27:18.014Z,3.30
2019-03-08T18:30:12.302Z,3.87
2019-03-08T18:32:49.079Z,3.37
2019-03-08T18:35:33.034Z,3.10
2019-03-08T18:38:27.308Z,2.90
2019-03-08T18:41:17.193Z,2.70
2019-03-08T18:43:59.811Z,3.00
2019-03-08T18:46:36.861Z,3.20
2019-03-08T18:49:16.575Z,3.37
2019-03-08T18:51:56.316Z,2.70
2019-03-08T18:54:29.610Z,3.03
2019-03-08T18:57:12.599Z,3.23
2019-03-08T18:59:43.092Z,2.77
2019-03-08T19:02:38.262Z,3.58
2019-03-08T19:05:10.613Z,3.03
2019-03-08T19:07:47.658Z,2.43
2019-03-08T19:10:28.020Z,2.90
2019-03-08T19:13:22.018Z,2.90
2019-03-08T19:15:52.598Z,2.70
2019-03-08T19:18:45.970Z,2.67
2019-03-08T19:21:16.485Z,3.00
2019-03-08T19:23:57.128Z,2.93
2019-03-08T19:26:27.786Z,2.83
2019-03-08T19:29:14.269Z,2.87
2019-03-08T19:31:47.764Z,3.20
2019-03-08T19:34:25.160Z,3.90
2019-03-08T19:37:18.331Z,3.57
2019-03-08T19:40:05.337Z,3.07
2019-03-08T19:42:48.036Z,3.43
2019-03-08T19:45:31.111Z,3.83
2019-03-08T19:48:10.506Z,3.60
2019-03-08T19:50:56.798Z,3.27
2019-03-08T19:53:27.744Z,3.50
2019-03-08T19:56:11.034Z,3.80
2019-03-08T19:58:41.478Z,3.80
2019-03-08T20:01:14.961Z,3.10
2019-03-08T20:03:52.188Z,3.00
2019-03-08T20:06:34.596Z,3.33
2019-03-08T20:09:28.595Z,3.43
2019-03-08T20:12:04.632Z,3.50
2019-03-08T20:14:41.439Z,3.93
2019-03-08T20:17:20.606Z,3.47
2019-03-08T20:20:01.823Z,3.37
2019-03-08T20:22:38.498Z,4.03
2019-03-08T20:25:16.603Z,3.80
2019-03-08T20:27:47.308Z,4.67
2019-03-08T20:30:28.530Z,4.30
2019-03-08T20:33:02.011Z,5.40
2019-03-08T20:35:55.162Z,4.40
2019-03-08T20:38:49.323Z,5.27
2019-03-08T20:41:35.665Z,4.87
2019-03-08T20:44:08.696Z,5.23
2019-03-08T20:46:46.462Z,4.97
2019-03-08T20:49:15.301Z,6.60
2019-03-08T20:51:50.981Z,5.73
2019-03-08T20:54:19.881Z,5.33
2019-03-08T20:56:48.754Z,5.83
2019-03-08T20:59:24.973Z,6.03
2019-03-08T21:01:53.882Z,5.93
2019-03-08T21:04:30.006Z,6.23
2019-03-08T21:06:58.841Z,6.33
2019-03-08T21:09:27.709Z,6.70
2019-03-08T21:12:03.407Z,6.57
2019-03-08T21:14:45.838Z,7.00
2019-03-08T21:17:28.774Z,6.93
2019-03-08T21:19:57.633Z,6.67
2019-03-08T21:22:33.292Z,6.17
2019-03-08T21:25:02.153Z,5.27
2019-03-08T21:27:31.895Z,6.27
2019-03-08T21:30:08.158Z,6.47
2019-03-08T21:32:37.046Z,6.07
2019-03-08T21:35:12.386Z,6.30
2019-03-08T21:37:48.350Z,6.43
2019-03-08T21:40:31.172Z,6.53
2019-03-08T21:43:00.160Z,5.93
2019-03-08T21:45:29.669Z,5.90
2019-03-08T21:48:05.625Z,6.60
2019-03-08T21:50:34.616Z,5.90
2019-03-08T21:53:09.960Z,6.40
2019-03-08T21:55:38.797Z,5.80
2019-03-08T21:58:08.370Z,6.17
2019-03-08T22:00:44.010Z,6.23
2019-03-08T22:03:20.069Z,6.90
2019-03-08T22:05:56.039Z,6.20
2019-03-08T22:08:25.222Z,5.80
2019-03-08T22:10:58.704Z,5.83
2019-03-08T22:13:33.866Z,6.10
2019-03-08T22:16:02.752Z,6.50
2019-03-08T22:18:39.018Z,6.17
2019-03-08T22:21:08.114Z,6.23
2019-03-08T22:23:37.212Z,6.10
2019-03-08T22:26:15.232Z,6.47
2019-03-08T22:28:44.290Z,6.43
2019-03-08T22:31:19.879Z,6.17
2019-03-08T22:33:48.864Z,5.70
2019-03-08T22:36:18.263Z,5.67
2019-03-08T22:38:53.446Z,5.40
2019-03-08T22:41:29.059Z,6.03
2019-03-08T22:44:04.387Z,6.17
2019-03-08T22:46:33.481Z,8.23
2019-03-08T22:49:02.785Z,5.63
2019-03-08T22:51:38.438Z,6.13
2019-03-08T22:54:07.537Z,6.10
2019-03-08T22:56:43.592Z,6.73
2019-03-08T22:59:12.500Z,5.77
2019-03-08T23:01:55.987Z,6.20
2019-03-08T23:04:31.563Z,6.40
2019-03-08T23:07:08.031Z,5.83
2019-03-08T23:09:37.543Z,5.70
2019-03-08T23:12:06.635Z,5.80
2019-03-08T23:14:42.733Z,5.80
2019-03-08T23:17:11.997Z,5.97
2019-03-08T23:19:47.545Z,5.77
2019-03-08T23:22:16.422Z,5.77
2019-03-08T23:24:48.412Z,5.47
2019-03-08T23:27:25.466Z,5.50
2019-03-08T23:29:56.024Z,5.57
2019-03-08T23:32:32.948Z,6.30
2019-03-08T23:35:01.968Z,5.87
2019-03-08T23:37:38.351Z,5.53
2019-03-08T23:40:16.050Z,5.30
2019-03-08T23:42:58.874Z,5.17
2019-03-08T23:45:27.968Z,6.40
2019-03-08T23:47:56.864Z,5.93
2019-03-08T23:50:33.740Z,5.83
2019-03-08T23:53:02.581Z,5.43
2019-03-08T23:55:38.442Z,5.50
2019-03-08T23:58:07.576Z,5.33
